Time;durP1;ratioP1;P1;durP2;ratioP2;P2;SDS_P1;SDS_P2;PMS_P1;PMS_P2;Temp;Humidity;BMP_temperature;BMP_pressure;BME280_temperature;BME280_humidity;BME280_pressure;Samples;Min_cycle;Max_cycle;Signal;HPM_P1;HPM_P2
2023/09/08 00:02:26;;;;;;;11.30;9.15;;;20.50;1.00;;;;;;5118960;28;20042;-62
2023/09/08 00:04:52;;;;;;;12.63;9.55;;;20.40;1.00;;;;;;5120403;28;20090;-62
2023/09/08 00:07:17;;;;;;;14.13;9.32;;;20.30;1.00;;;;;;5119574;28;20089;-62
2023/09/08 00:09:43;;;;;;;12.88;9.57;;;20.30;1.00;;;;;;5119586;28;20054;-62
2023/09/08 00:12:09;;;;;;;13.55;9.38;;;20.20;1.00;;;;;;5119873;28;20062;-62
2023/09/08 00:14:34;;;;;;;12.55;9.07;;;20.30;1.00;;;;;;5118834;28;20069;-61
2023/09/08 00:17:00;;;;;;;12.27;8.90;;;20.20;1.00;;;;;;5120033;28;20067;-61
2023/09/08 00:19:26;;;;;;;12.10;9.38;;;20.10;1.00;;;;;;5118566;28;20042;-61
2023/09/08 00:21:51;;;;;;;13.80;9.95;;;20.10;1.00;;;;;;5124614;28;20055;-62
2023/09/08 00:24:18;;;;;;;11.95;9.30;;;20.10;1.40;;;;;;5126160;28;20051;-61
2023/09/08 00:26:44;;;;;;;12.90;9.82;;;20.00;1.70;;;;;;5126099;27;20043;-62
2023/09/08 00:29:10;;;;;;;12.75;9.27;;;20.00;1.90;;;;;;5126567;27;20063;-61
2023/09/08 00:31:35;;;;;;;12.30;8.73;;;20.00;2.80;;;;;;5125575;28;20043;-62
2023/09/08 00:34:01;;;;;;;14.20;10.15;;;20.00;3.10;;;;;;5126647;28;20047;-61
2023/09/08 00:36:27;;;;;;;11.93;9.52;;;19.90;3.70;;;;;;5125128;28;20062;-61
2023/09/08 00:38:52;;;;;;;14.35;9.38;;;19.90;4.20;;;;;;5126779;28;20050;-61
2023/09/08 00:41:18;;;;;;;12.98;9.23;;;19.90;4.50;;;;;;5125511;28;20150;-61
2023/09/08 00:43:44;;;;;;;15.65;9.48;;;19.90;5.00;;;;;;5126398;28;20182;-62
2023/09/08 00:46:10;;;;;;;13.02;9.70;;;19.80;6.60;;;;;;5126318;28;20530;-61
2023/09/08 00:48:37;;;;;;;13.82;9.80;;;19.90;6.40;;;;;;5125381;27;20042;-62
2023/09/08 00:51:05;;;;;;;12.40;9.63;;;19.80;6.50;;;;;;5125542;27;20083;-61
2023/09/08 00:53:31;;;;;;;12.60;9.75;;;19.80;8.60;;;;;;5104715;28;20481;-62
2023/09/08 00:55:59;;;;;;;12.98;9.15;;;19.70;8.80;;;;;;5121677;28;20039;-61
2023/09/08 00:58:25;;;;;;;11.07;8.73;;;19.70;10.40;;;;;;5125068;27;20032;-61
2023/09/08 01:00:51;;;;;;;15.00;10.13;;;19.70;10.30;;;;;;5126249;27;20043;-61
2023/09/08 01:03:16;;;;;;;12.70;8.98;;;19.60;11.70;;;;;;5126009;28;20036;-62
2023/09/08 01:05:43;;;;;;;14.93;9.23;;;19.60;11.70;;;;;;5125373;28;20046;-61
2023/09/08 01:08:10;;;;;;;11.98;8.90;;;19.50;12.60;;;;;;5126185;27;20054;-61
2023/09/08 01:10:37;;;;;;;13.77;8.48;;;19.50;14.10;;;;;;5123603;28;20058;-61
2023/09/08 01:13:03;;;;;;;10.90;8.38;;;19.50;14.10;;;;;;5126536;27;20051;-61
2023/09/08 01:15:28;;;;;;;12.55;9.23;;;19.50;14.60;;;;;;5125322;28;20412;-62
2023/09/08 01:17:54;;;;;;;12.52;9.20;;;19.40;15.50;;;;;;5126229;28;20054;-61
2023/09/08 01:20:27;;;;;;;13.63;9.05;;;19.40;16.20;;;;;;5125562;28;20043;-61
2023/09/08 01:23:14;;;;;;;11.63;8.63;;;19.40;17.30;;;;;;5124806;27;20126;-60
2023/09/08 01:25:54;;;;;;;11.70;8.90;;;19.30;19.60;;;;;;5126497;27;20044;-61
2023/09/08 01:28:23;;;;;;;10.60;8.35;;;19.30;19.40;;;;;;5125203;27;20051;-61
2023/09/08 01:30:50;;;;;;;12.65;9.45;;;19.30;19.30;;;;;;5126245;27;20043;-61
2023/09/08 01:33:16;;;;;;;13.55;9.45;;;19.30;20.20;;;;;;5122274;27;20086;-62
2023/09/08 01:35:42;;;;;;;11.75;9.05;;;19.30;20.90;;;;;;5121660;28;20043;-60
2023/09/08 01:38:08;;;;;;;13.45;9.48;;;19.30;18.50;;;;;;5122787;28;20036;-57
2023/09/08 01:40:34;;;;;;;12.30;8.93;;;19.30;20.20;;;;;;5121472;28;20055;-57
2023/09/08 01:43:00;;;;;;;12.20;9.65;;;19.20;19.00;;;;;;5122973;28;20473;-57
2023/09/08 01:45:26;;;;;;;15.75;9.75;;;19.20;19.50;;;;;;5120162;28;20509;-57
2023/09/08 01:47:51;;;;;;;13.55;9.32;;;19.10;20.20;;;;;;5122509;28;20055;-58
2023/09/08 01:50:21;;;;;;;12.30;9.07;;;19.10;21.00;;;;;;5122077;28;20048;-58
2023/09/08 01:52:47;;;;;;;11.10;9.30;;;19.10;20.60;;;;;;5120385;28;20058;-57
2023/09/08 01:55:13;;;;;;;12.27;9.15;;;19.00;22.60;;;;;;5112792;28;20099;-57
2023/09/08 01:57:38;;;;;;;12.75;9.38;;;19.00;23.60;;;;;;5100399;28;20042;-57
2023/09/08 02:00:05;;;;;;;13.05;9.40;;;19.00;23.40;;;;;;5102243;28;20036;-57
2023/09/08 02:02:31;;;;;;;11.82;9.18;;;19.00;25.20;;;;;;5100575;28;20044;-57
2023/09/08 02:04:56;;;;;;;12.88;8.80;;;19.00;24.70;;;;;;5101816;28;20044;-58
2023/09/08 02:07:22;;;;;;;13.98;9.00;;;19.00;25.00;;;;;;5101321;28;20108;-59
2023/09/08 02:09:47;;;;;;;13.07;8.93;;;19.00;25.20;;;;;;5101111;28;20036;-58
2023/09/08 02:12:13;;;;;;;13.30;9.65;;;18.90;25.90;;;;;;5101724;28;20068;-57
2023/09/08 02:14:39;;;;;;;13.65;9.27;;;19.00;24.70;;;;;;5100337;28;20047;-58
2023/09/08 02:17:06;;;;;;;12.18;8.43;;;18.90;25.80;;;;;;5101874;28;20048;-58
2023/09/08 02:19:31;;;;;;;13.02;9.23;;;18.90;27.60;;;;;;5100262;28;20044;-57
2023/09/08 02:21:57;;;;;;;12.48;9.82;;;18.90;29.00;;;;;;5101796;28;20040;-57
2023/09/08 02:24:23;;;;;;;13.27;9.07;;;18.90;28.10;;;;;;5100819;28;20047;-58
2023/09/08 02:26:49;;;;;;;11.88;8.75;;;18.80;29.30;;;;;;5100901;28;20480;-57
2023/09/08 02:29:15;;;;;;;12.80;9.38;;;18.80;29.10;;;;;;5101142;28;20054;-58
2023/09/08 02:31:41;;;;;;;14.75;9.57;;;18.80;29.50;;;;;;5100242;28;20044;-58
2023/09/08 02:34:06;;;;;;;14.55;9.70;;;18.80;29.60;;;;;;5101216;28;20067;-57
2023/09/08 02:36:32;;;;;;;13.02;9.65;;;18.80;32.20;;;;;;5100059;28;20040;-57
2023/09/08 02:38:58;;;;;;;13.35;9.55;;;18.70;31.20;;;;;;5101315;28;20066;-57
2023/09/08 02:41:23;;;;;;;12.75;9.65;;;18.70;32.10;;;;;;5100283;28;20052;-58
2023/09/08 02:43:49;;;;;;;12.60;9.75;;;18.80;34.10;;;;;;5100296;28;20044;-57
2023/09/08 02:46:15;;;;;;;14.23;9.45;;;18.70;31.80;;;;;;5100959;28;20100;-58
2023/09/08 02:48:41;;;;;;;12.32;9.68;;;18.70;31.50;;;;;;5099600;28;20094;-57
2023/09/08 02:51:07;;;;;;;14.80;8.75;;;18.70;31.40;;;;;;5099623;28;20059;-57
2023/09/08 02:53:33;;;;;;;12.18;9.52;;;18.70;30.90;;;;;;5099602;28;20103;-57
2023/09/08 02:56:00;;;;;;;12.57;9.60;;;18.60;31.40;;;;;;5117321;28;20038;-57
2023/09/08 02:58:26;;;;;;;15.00;9.40;;;18.60;29.80;;;;;;5120285;28;20059;-58
2023/09/08 03:00:53;;;;;;;11.07;8.77;;;18.60;31.90;;;;;;5120818;28;20027;-57
2023/09/08 03:03:19;;;;;;;12.25;9.23;;;18.60;31.80;;;;;;5121137;28;20036;-57
2023/09/08 03:05:45;;;;;;;12.57;9.00;;;18.60;30.90;;;;;;5120052;28;20051;-57
2023/09/08 03:08:11;;;;;;;12.68;9.25;;;18.50;31.80;;;;;;5121160;28;20036;-57
2023/09/08 03:10:37;;;;;;;13.35;9.52;;;18.50;31.90;;;;;;5118354;28;20099;-57
2023/09/08 03:13:03;;;;;;;11.40;8.77;;;18.50;31.90;;;;;;5120126;28;20047;-57
2023/09/08 03:15:29;;;;;;;13.30;9.75;;;18.40;31.50;;;;;;5119889;28;20087;-57
2023/09/08 03:17:55;;;;;;;12.55;9.20;;;18.50;31.90;;;;;;5120644;28;20105;-58
2023/09/08 03:20:21;;;;;;;12.65;9.93;;;18.50;32.10;;;;;;5120070;28;20495;-57
2023/09/08 03:22:47;;;;;;;11.45;9.27;;;18.50;35.70;;;;;;5119814;27;20039;-57
2023/09/08 03:25:14;;;;;;;12.68;9.77;;;18.50;33.80;;;;;;5120779;28;20057;-58
2023/09/08 03:27:40;;;;;;;14.45;10.00;;;18.50;32.60;;;;;;5119254;28;20038;-57
2023/09/08 03:30:06;;;;;;;11.75;9.10;;;18.40;33.40;;;;;;5120722;28;20067;-58
2023/09/08 03:32:32;;;;;;;11.68;9.25;;;18.50;36.00;;;;;;5119648;28;20051;-57
2023/09/08 03:34:57;;;;;;;14.32;9.93;;;18.40;34.40;;;;;;5120375;28;20039;-57
2023/09/08 03:37:23;;;;;;;13.55;9.32;;;18.40;35.70;;;;;;5120101;28;20044;-58
2023/09/08 03:39:49;;;;;;;12.18;9.60;;;18.40;36.60;;;;;;5119355;28;20040;-57
2023/09/08 03:42:15;;;;;;;14.60;9.63;;;18.30;35.00;;;;;;5120358;28;20545;-57
2023/09/08 03:44:40;;;;;;;12.88;9.52;;;18.30;35.50;;;;;;5118960;28;20031;-56
2023/09/08 03:47:06;;;;;;;12.48;9.65;;;18.40;39.90;;;;;;5120757;28;20374;-57
2023/09/08 03:49:33;;;;;;;13.80;10.07;;;18.30;36.00;;;;;;5117690;28;20141;-57
2023/09/08 03:51:58;;;;;;;14.77;10.02;;;18.30;38.20;;;;;;5120577;28;20077;-59
2023/09/08 03:54:24;;;;;;;13.38;9.52;;;18.30;39.60;;;;;;5116823;28;20036;-57
2023/09/08 03:56:50;;;;;;;13.52;9.38;;;18.30;37.80;;;;;;5098369;28;20069;-57
2023/09/08 03:59:15;;;;;;;12.65;10.05;;;18.30;39.70;;;;;;5099715;28;20044;-57
2023/09/08 04:01:41;;;;;;;11.82;10.10;;;18.30;38.60;;;;;;5097145;28;20089;-56
2023/09/08 04:04:07;;;;;;;15.00;10.52;;;18.20;42.20;;;;;;5099757;28;20101;-57
2023/09/08 04:06:32;;;;;;;13.85;10.13;;;18.20;41.30;;;;;;5098720;28;20040;-56
2023/09/08 04:08:58;;;;;;;13.13;10.15;;;18.20;41.50;;;;;;5099866;28;20584;-57
2023/09/08 04:11:25;;;;;;;12.98;10.15;;;18.20;42.40;;;;;;5099057;28;20115;-57
2023/09/08 04:13:51;;;;;;;14.10;10.40;;;18.10;42.50;;;;;;5098711;28;20052;-57
2023/09/08 04:16:17;;;;;;;13.77;9.55;;;18.10;44.40;;;;;;5099405;28;20036;-58
2023/09/08 04:18:43;;;;;;;12.93;9.70;;;18.00;45.00;;;;;;5098241;28;20040;-57
2023/09/08 04:21:08;;;;;;;13.95;10.52;;;18.00;48.00;;;;;;5099632;28;20040;-57
2023/09/08 04:23:34;;;;;;;13.02;10.32;;;18.00;47.60;;;;;;5098387;28;20115;-57
2023/09/08 04:26:00;;;;;;;13.43;10.45;;;18.00;47.30;;;;;;5099684;28;20036;-57
2023/09/08 04:28:25;;;;;;;12.07;9.52;;;18.00;46.90;;;;;;5098605;28;20044;-57
2023/09/08 04:30:51;;;;;;;13.88;10.38;;;18.00;46.30;;;;;;5098915;28;20036;-58
2023/09/08 04:33:16;;;;;;;12.93;10.55;;;18.00;49.10;;;;;;5099398;28;20056;-57
2023/09/08 04:35:43;;;;;;;14.93;10.45;;;18.00;47.00;;;;;;5098512;28;20037;-57
2023/09/08 04:38:09;;;;;;;13.57;11.00;;;18.00;47.00;;;;;;5099287;28;20131;-58
2023/09/08 04:40:35;;;;;;;13.95;10.20;;;18.00;50.70;;;;;;5098035;28;20314;-58
2023/09/08 04:43:00;;;;;;;16.40;11.73;;;17.90;49.90;;;;;;5099777;28;20105;-57
2023/09/08 04:45:26;;;;;;;13.32;10.32;;;17.90;49.20;;;;;;5098387;28;20496;-57
2023/09/08 04:47:51;;;;;;;12.05;10.25;;;17.90;50.10;;;;;;5099411;28;20032;-57
2023/09/08 04:50:18;;;;;;;13.80;10.20;;;17.90;51.90;;;;;;5098765;28;20075;-57
2023/09/08 04:52:43;;;;;;;13.40;10.07;;;17.90;51.10;;;;;;5098135;28;20063;-57
2023/09/08 04:55:10;;;;;;;16.55;10.27;;;17.90;52.10;;;;;;5108076;28;20035;-57
2023/09/08 04:57:35;;;;;;;12.77;9.30;;;17.80;50.70;;;;;;5117753;28;20036;-57
2023/09/08 05:00:02;;;;;;;14.27;10.18;;;17.80;52.30;;;;;;5119794;28;20070;-57
2023/09/08 05:02:28;;;;;;;14.23;9.90;;;17.80;53.10;;;;;;5118518;28;20032;-57
2023/09/08 05:04:54;;;;;;;13.27;10.45;;;17.80;54.70;;;;;;5118069;28;20107;-57
2023/09/08 05:07:19;;;;;;;13.02;10.52;;;17.80;52.50;;;;;;5120297;28;20051;-57
2023/09/08 05:09:45;;;;;;;12.15;9.90;;;17.80;52.70;;;;;;5122509;28;20071;-57
2023/09/08 05:12:11;;;;;;;15.55;10.27;;;17.90;52.90;;;;;;5123135;28;20040;-57
2023/09/08 05:14:36;;;;;;;15.10;10.88;;;17.80;51.80;;;;;;5121871;28;20086;-57
2023/09/08 05:17:02;;;;;;;14.88;10.73;;;17.80;52.30;;;;;;5122161;28;20109;-58
2023/09/08 05:19:28;;;;;;;14.38;10.82;;;17.80;53.00;;;;;;5122198;28;20035;-56
2023/09/08 05:21:55;;;;;;;15.32;10.38;;;17.90;53.20;;;;;;5123232;28;20508;-58
2023/09/08 05:24:21;;;;;;;16.40;10.77;;;17.90;51.70;;;;;;5122568;28;20032;-57
2023/09/08 05:26:47;;;;;;;13.57;9.93;;;17.90;51.40;;;;;;5121833;28;20040;-58
2023/09/08 05:29:13;;;;;;;12.15;9.48;;;17.90;51.20;;;;;;5122891;28;20084;-57
2023/09/08 05:31:39;;;;;;;12.52;10.07;;;18.00;50.40;;;;;;5121668;28;20103;-57
2023/09/08 05:34:04;;;;;;;13.10;10.27;;;18.00;49.00;;;;;;5122937;28;20078;-57
2023/09/08 05:36:31;;;;;;;14.38;10.18;;;18.00;48.40;;;;;;5121452;28;20057;-57
2023/09/08 05:38:56;;;;;;;13.48;10.55;;;18.10;49.10;;;;;;5122938;28;20070;-57
2023/09/08 05:41:22;;;;;;;13.43;9.57;;;18.10;46.70;;;;;;5121585;28;20043;-56
2023/09/08 05:43:48;;;;;;;16.05;9.20;;;18.20;44.90;;;;;;5121750;28;20494;-57
2023/09/08 05:46:14;;;;;;;13.80;9.35;;;18.30;44.90;;;;;;5122148;27;20036;-57
2023/09/08 05:48:39;;;;;;;13.05;9.95;;;18.30;44.70;;;;;;5121016;28;20035;-57
2023/09/08 05:51:06;;;;;;;13.60;9.30;;;18.30;43.90;;;;;;5118088;28;20103;-57
2023/09/08 05:53:32;;;;;;;13.00;10.27;;;18.30;42.50;;;;;;5117179;27;20051;-57
2023/09/08 05:55:58;;;;;;;12.40;10.00;;;18.40;40.20;;;;;;5102494;27;20052;-57
2023/09/08 05:58:27;;;;;;;16.23;9.65;;;18.50;39.30;;;;;;5096833;28;20054;-57
2023/09/08 06:00:53;;;;;;;13.18;9.40;;;18.50;38.20;;;;;;5097288;28;20044;-56
2023/09/08 06:03:19;;;;;;;13.75;9.43;;;18.50;38.00;;;;;;5097214;28;20551;-57
2023/09/08 06:05:45;;;;;;;11.95;9.15;;;18.60;36.90;;;;;;5096593;28;20040;-62
2023/09/08 06:08:13;;;;;;;12.40;9.45;;;18.60;37.00;;;;;;5097835;28;20556;-58
2023/09/08 06:10:39;;;;;;;13.27;9.35;;;18.70;35.50;;;;;;5095937;28;20044;-57
2023/09/08 06:13:05;;;;;;;14.15;10.65;;;18.70;35.50;;;;;;5097924;28;20052;-57
2023/09/08 06:15:30;;;;;;;13.15;9.75;;;18.80;35.70;;;;;;5096985;28;20447;-57
2023/09/08 06:17:56;;;;;;;13.07;9.32;;;18.80;35.10;;;;;;5098437;28;20044;-57
2023/09/08 06:20:22;;;;;;;12.60;9.65;;;18.90;34.10;;;;;;5095647;28;20086;-57
2023/09/08 06:22:49;;;;;;;13.40;9.18;;;18.90;32.90;;;;;;5095848;28;20104;-57
2023/09/08 06:25:14;;;;;;;12.20;9.40;;;18.90;32.40;;;;;;5095745;28;20052;-57
2023/09/08 06:27:40;;;;;;;12.80;9.68;;;19.00;31.60;;;;;;5095610;28;20062;-58
2023/09/08 06:30:06;;;;;;;11.90;8.88;;;19.00;30.30;;;;;;5098068;28;20044;-57
2023/09/08 06:32:32;;;;;;;11.20;9.40;;;19.10;30.50;;;;;;5096377;28;20086;-57
2023/09/08 06:34:58;;;;;;;11.18;9.10;;;19.20;30.00;;;;;;5097385;28;20067;-56
2023/09/08 06:37:23;;;;;;;12.00;8.93;;;19.30;28.50;;;;;;5097042;28;20050;-57
2023/09/08 06:39:49;;;;;;;11.27;8.95;;;19.30;28.20;;;;;;5095445;28;20139;-57
2023/09/08 06:42:15;;;;;;;14.13;9.07;;;19.30;27.70;;;;;;5096875;28;20052;-57
2023/09/08 06:44:40;;;;;;;12.98;9.60;;;19.40;26.20;;;;;;5095981;28;20047;-58
2023/09/08 06:47:07;;;;;;;12.88;9.30;;;19.50;25.20;;;;;;5097266;28;20063;-56
2023/09/08 06:49:33;;;;;;;12.00;8.50;;;19.50;24.00;;;;;;5094170;28;20185;-57
2023/09/08 06:51:59;;;;;;;11.65;9.45;;;19.50;22.90;;;;;;5097083;28;20148;-57
2023/09/08 06:54:24;;;;;;;12.05;9.07;;;19.60;22.60;;;;;;5098955;28;20031;-57
2023/09/08 06:56:50;;;;;;;11.48;8.95;;;19.60;22.50;;;;;;5116386;28;20093;-57
2023/09/08 06:59:17;;;;;;;11.98;8.77;;;19.60;21.20;;;;;;5114940;28;20551;-58
2023/09/08 07:01:42;;;;;;;12.02;8.70;;;19.70;20.40;;;;;;5115701;27;20047;-56
2023/09/08 07:04:08;;;;;;;13.85;8.52;;;19.70;20.30;;;;;;5117324;28;20169;-56
2023/09/08 07:06:35;;;;;;;13.43;9.50;;;19.80;19.80;;;;;;5085857;27;20121;-57
2023/09/08 07:09:01;;;;;;;13.05;8.93;;;19.90;19.80;;;;;;5084035;28;20377;-57
2023/09/08 07:11:27;;;;;;;13.65;8.52;;;19.90;18.90;;;;;;5080631;28;20132;-57
2023/09/08 07:13:53;;;;;;;13.40;8.45;;;20.00;19.10;;;;;;5095098;28;20574;-57
2023/09/08 07:16:18;;;;;;;12.23;8.45;;;20.10;18.70;;;;;;5096676;28;20079;-57
2023/09/08 07:18:44;;;;;;;12.70;8.48;;;20.10;17.50;;;;;;5095224;28;20454;-57
2023/09/08 07:21:10;;;;;;;12.77;8.70;;;20.20;17.40;;;;;;5096666;28;20036;-57
2023/09/08 07:23:36;;;;;;;11.70;8.70;;;20.30;17.00;;;;;;5095058;28;20050;-57
2023/09/08 07:26:02;;;;;;;11.60;8.50;;;20.40;16.60;;;;;;5095102;28;20475;-56
2023/09/08 07:28:28;;;;;;;10.63;7.85;;;20.40;15.20;;;;;;5095714;28;20047;-56
2023/09/08 07:30:53;;;;;;;12.30;8.10;;;20.60;14.90;;;;;;5094739;28;20068;-57
2023/09/08 07:33:19;;;;;;;12.25;8.00;;;20.60;14.00;;;;;;5096331;28;20043;-57
2023/09/08 07:35:45;;;;;;;10.27;7.88;;;20.70;14.30;;;;;;5095205;28;20060;-58
2023/09/08 07:38:11;;;;;;;10.25;8.00;;;20.80;13.80;;;;;;5095818;28;20051;-57
2023/09/08 07:40:36;;;;;;;11.45;8.10;;;20.80;13.00;;;;;;5095980;28;20050;-57
2023/09/08 07:43:02;;;;;;;13.15;8.27;;;21.00;12.10;;;;;;5106849;28;20134;-57
2023/09/08 07:45:28;;;;;;;12.40;8.02;;;21.10;12.70;;;;;;5097873;28;20036;-56
2023/09/08 07:47:54;;;;;;;10.30;8.30;;;21.10;13.10;;;;;;5095752;28;20048;-57
2023/09/08 07:50:25;;;;;;;13.10;8.32;;;21.20;13.60;;;;;;5094809;28;20040;-57
2023/09/08 07:52:52;;;;;;;11.10;7.65;;;21.30;12.10;;;;;;5094625;28;20044;-57
2023/09/08 07:55:18;;;;;;;13.07;8.52;;;21.30;10.30;;;;;;5106617;28;20058;-57
2023/09/08 07:57:48;;;;;;;10.60;7.57;;;21.30;7.40;;;;;;5106636;28;20486;-57
2023/09/08 08:00:15;;;;;;;11.23;8.02;;;21.40;8.10;;;;;;5101304;28;20074;-56
2023/09/08 08:02:45;;;;;;;11.35;7.78;;;21.40;8.40;;;;;;5099652;28;20064;-57
2023/09/08 08:05:11;;;;;;;9.93;7.63;;;21.60;6.90;;;;;;5076661;28;20074;-58
2023/09/08 08:07:37;;;;;;;9.68;7.20;;;21.70;6.40;;;;;;5075472;28;20100;-57
2023/09/08 08:10:03;;;;;;;10.95;7.45;;;21.80;4.90;;;;;;5074418;28;20048;-57
2023/09/08 08:12:29;;;;;;;11.18;8.20;;;21.90;3.70;;;;;;5074089;28;20047;-57
2023/09/08 08:14:55;;;;;;;9.20;7.03;;;21.90;1.00;;;;;;5084047;28;20056;-57
2023/09/08 08:17:21;;;;;;;12.88;7.85;;;22.00;1.00;;;;;;5096244;28;20044;-57
2023/09/08 08:19:47;;;;;;;10.50;6.88;;;22.10;1.00;;;;;;5094534;28;20044;-57
2023/09/08 08:22:13;;;;;;;9.80;7.70;;;22.10;1.00;;;;;;5095027;28;20556;-57
2023/09/08 08:24:38;;;;;;;10.43;7.18;;;22.20;1.00;;;;;;5098922;28;20066;-57
2023/09/08 08:27:04;;;;;;;10.60;6.82;;;22.30;1.00;;;;;;5103224;28;20039;-57
2023/09/08 08:29:30;;;;;;;10.35;7.30;;;22.40;1.00;;;;;;5105620;28;20040;-55
2023/09/08 08:31:56;;;;;;;14.98;6.97;;;22.50;1.00;;;;;;5104422;28;20062;-58
2023/09/08 08:34:22;;;;;;;11.60;6.18;;;22.50;1.00;;;;;;5102142;28;20040;-57
2023/09/08 08:36:47;;;;;;;10.70;6.93;;;22.70;1.00;;;;;;5101291;28;20043;-57
2023/09/08 08:39:13;;;;;;;9.10;6.45;;;22.70;1.00;;;;;;5108209;28;20066;-57
2023/09/08 08:41:40;;;;;;;12.35;7.70;;;22.80;1.00;;;;;;5094286;28;20044;-57
2023/09/08 08:44:07;;;;;;;10.73;7.22;;;22.90;1.00;;;;;;5094029;28;20064;-57
2023/09/08 08:46:34;;;;;;;9.30;6.88;;;23.00;1.00;;;;;;5088948;28;20051;-58
2023/09/08 08:49:03;;;;;;;9.38;7.50;;;23.10;1.00;;;;;;5097878;28;20036;-57
2023/09/08 08:51:30;;;;;;;9.65;6.75;;;23.10;1.00;;;;;;5099486;28;20124;-58
2023/09/08 08:53:57;;;;;;;11.63;7.13;;;23.20;1.00;;;;;;5096885;28;20044;-57
2023/09/08 08:56:23;;;;;;;9.52;6.70;;;23.30;1.00;;;;;;5098115;28;20435;-58
2023/09/08 08:58:49;;;;;;;11.10;7.35;;;23.40;1.00;;;;;;5100894;28;20082;-58
2023/09/08 09:01:20;;;;;;;9.73;7.18;;;23.50;1.00;;;;;;5100474;28;20605;-57
2023/09/08 09:03:49;;;;;;;9.60;6.50;;;23.50;1.00;;;;;;5103258;28;20040;-57
2023/09/08 09:06:15;;;;;;;11.27;6.32;;;23.70;1.00;;;;;;5101704;28;20470;-58
2023/09/08 09:08:43;;;;;;;9.13;6.25;;;23.80;1.00;;;;;;5103553;28;20038;-58
2023/09/08 09:11:09;;;;;;;8.82;6.28;;;23.90;1.00;;;;;;5102288;28;20032;-58
2023/09/08 09:13:35;;;;;;;9.88;5.68;;;23.90;1.00;;;;;;5102556;28;20044;-56
2023/09/08 09:16:03;;;;;;;11.73;6.00;;;24.10;1.00;;;;;;5102597;28;20191;-58
2023/09/08 09:18:30;;;;;;;10.20;5.45;;;24.20;1.00;;;;;;5101564;28;20051;-58
2023/09/08 09:20:59;;;;;;;9.52;5.30;;;24.20;1.00;;;;;;5101270;28;20449;-58
2023/09/08 09:23:33;;;;;;;9.43;5.45;;;24.30;1.00;;;;;;5097779;28;20064;-58
2023/09/08 09:26:00;;;;;;;8.43;5.57;;;24.30;1.00;;;;;;5110614;28;20589;-58
2023/09/08 09:28:28;;;;;;;11.52;5.30;;;24.40;1.00;;;;;;5114513;28;20073;-58
2023/09/08 09:30:56;;;;;;;8.70;5.75;;;24.50;1.00;;;;;;5116229;28;20043;-58
2023/09/08 09:33:22;;;;;;;8.23;5.07;;;24.50;1.00;;;;;;5117726;28;20039;-58
2023/09/08 09:35:49;;;;;;;9.02;5.65;;;24.60;1.00;;;;;;5117827;28;20052;-57
2023/09/08 09:38:18;;;;;;;9.57;5.50;;;24.60;1.00;;;;;;5119104;28;20050;-58
2023/09/08 09:40:44;;;;;;;8.98;5.38;;;24.80;1.00;;;;;;5111229;28;20099;-57
2023/09/08 09:43:13;;;;;;;9.43;5.85;;;24.90;1.00;;;;;;5102161;28;20057;-57
2023/09/08 09:45:40;;;;;;;7.90;4.93;;;24.80;1.00;;;;;;5117939;27;20027;-58
2023/09/08 09:48:07;;;;;;;8.60;5.68;;;25.00;1.00;;;;;;5117856;28;20163;-58
2023/09/08 09:50:36;;;;;;;10.27;5.65;;;25.00;1.00;;;;;;5109604;28;20052;-58
2023/09/08 09:53:08;;;;;;;8.50;5.50;;;25.10;1.00;;;;;;5075032;28;20048;-58
2023/09/08 09:55:36;;;;;;;9.48;5.13;;;25.20;1.00;;;;;;5090059;28;20056;-57
2023/09/08 09:58:03;;;;;;;8.43;5.22;;;25.20;1.00;;;;;;5099703;28;20044;-58
2023/09/08 10:00:33;;;;;;;9.75;5.55;;;25.30;1.00;;;;;;5101837;28;20040;-58
2023/09/08 10:02:59;;;;;;;11.75;5.90;;;25.40;1.00;;;;;;5105680;28;20050;-58
2023/09/08 10:05:25;;;;;;;9.05;5.30;;;25.50;1.00;;;;;;5121271;27;20055;-58
2023/09/08 10:07:52;;;;;;;9.20;5.70;;;25.50;1.00;;;;;;5122388;28;20047;-58
2023/09/08 10:10:18;;;;;;;8.85;5.25;;;25.60;1.00;;;;;;5120502;28;20071;-58
2023/09/08 10:12:45;;;;;;;9.23;4.97;;;25.60;1.00;;;;;;5115401;28;20099;-57
2023/09/08 10:15:12;;;;;;;8.65;5.22;;;25.80;1.00;;;;;;5111339;28;20092;-57
2023/09/08 10:17:40;;;;;;;8.27;5.28;;;25.70;1.00;;;;;;5112014;28;20321;-59
2023/09/08 10:20:11;;;;;;;8.93;5.47;;;25.70;1.00;;;;;;5109274;28;20608;-57
2023/09/08 10:22:41;;;;;;;9.27;5.93;;;25.80;1.00;;;;;;5109265;28;20070;-58
2023/09/08 10:25:08;;;;;;;9.05;5.45;;;26.00;1.00;;;;;;5118603;28;20059;-57
2023/09/08 10:27:36;;;;;;;10.93;5.25;;;26.00;1.00;;;;;;5120093;28;20055;-58
2023/09/08 10:30:06;;;;;;;7.88;4.97;;;26.10;1.00;;;;;;5081417;28;20044;-58
2023/09/08 10:32:35;;;;;;;9.32;5.45;;;26.20;1.00;;;;;;5079048;28;20045;-58
2023/09/08 10:35:02;;;;;;;9.27;5.70;;;26.20;1.00;;;;;;5079105;28;20044;-57
2023/09/08 10:37:32;;;;;;;7.13;4.43;;;26.30;1.00;;;;;;5080661;28;20040;-57
2023/09/08 10:40:25;;;;;;;8.70;5.45;;;26.40;1.00;;;;;;5079360;28;20061;-57
2023/09/08 10:43:08;;;;;;;7.03;4.78;;;26.30;1.00;;;;;;5080794;28;20041;-58
2023/09/08 10:45:34;;;;;;;8.07;5.53;;;26.40;1.00;;;;;;5079796;28;20053;-57
2023/09/08 10:48:01;;;;;;;9.88;4.78;;;26.50;1.00;;;;;;5080093;28;20513;-58
2023/09/08 10:50:32;;;;;;;8.27;4.97;;;26.50;1.00;;;;;;5079968;28;20266;-58
2023/09/08 10:53:14;;;;;;;9.70;5.07;;;26.50;1.00;;;;;;5084680;28;20050;-57
2023/09/08 10:55:47;;;;;;;8.73;5.18;;;26.70;1.00;;;;;;5107110;28;20043;-57
2023/09/08 10:58:18;;;;;;;8.82;4.53;;;26.70;1.00;;;;;;5109939;28;20044;-57
2023/09/08 11:00:46;;;;;;;10.02;4.72;;;26.90;1.00;;;;;;5109616;28;20040;-58
2023/09/08 11:03:13;;;;;;;7.72;5.03;;;27.00;1.00;;;;;;5092164;28;20034;-57
2023/09/08 11:05:39;;;;;;;8.40;5.38;;;27.00;1.00;;;;;;5107737;28;20043;-57
2023/09/08 11:08:05;;;;;;;8.65;5.15;;;27.10;1.00;;;;;;5107632;28;20156;-58
2023/09/08 11:10:32;;;;;;;7.55;5.03;;;27.10;1.00;;;;;;5094385;28;20058;-57
2023/09/08 11:12:59;;;;;;;9.13;5.20;;;27.20;1.00;;;;;;5101274;28;20044;-57
2023/09/08 11:15:25;;;;;;;7.85;5.38;;;27.30;1.00;;;;;;5099353;28;20082;-57
2023/09/08 11:17:51;;;;;;;7.90;5.30;;;27.40;1.00;;;;;;5099812;28;20063;-58
2023/09/08 11:20:27;;;;;;;8.93;4.90;;;27.40;1.00;;;;;;5098022;28;20066;-58
2023/09/08 11:22:53;;;;;;;7.55;5.10;;;27.50;1.00;;;;;;5098574;28;20071;-58
2023/09/08 11:25:20;;;;;;;7.88;5.57;;;27.50;1.00;;;;;;5100497;28;20036;-58
2023/09/08 11:27:49;;;;;;;7.45;4.80;;;27.60;1.00;;;;;;5099013;28;20044;-58
2023/09/08 11:30:15;;;;;;;9.70;5.13;;;27.60;1.00;;;;;;5100690;28;20052;-58
2023/09/08 11:32:41;;;;;;;10.27;5.25;;;27.80;1.00;;;;;;5099633;28;20043;-58
2023/09/08 11:35:09;;;;;;;8.18;4.60;;;27.90;1.00;;;;;;5099568;28;20080;-56
2023/09/08 11:37:40;;;;;;;9.40;4.82;;;27.90;1.00;;;;;;5099861;28;20055;-57
2023/09/08 11:40:11;;;;;;;7.27;4.60;;;28.00;1.00;;;;;;5099064;28;20120;-58
2023/09/08 11:42:43;;;;;;;8.82;4.28;;;28.00;1.00;;;;;;5109682;28;20407;-57
2023/09/08 11:45:21;;;;;;;7.45;4.88;;;28.20;1.00;;;;;;5099992;28;20062;-57
2023/09/08 11:47:49;;;;;;;7.97;4.65;;;28.20;1.00;;;;;;5099637;28;20043;-57
2023/09/08 11:50:16;;;;;;;8.25;4.57;;;28.30;1.00;;;;;;5099187;28;20626;-58
2023/09/08 11:52:47;;;;;;;9.45;5.90;;;28.40;1.00;;;;;;5098719;28;20048;-57
2023/09/08 11:55:14;;;;;;;8.37;5.50;;;28.40;1.00;;;;;;5109710;28;20096;-58
2023/09/08 11:57:45;;;;;;;9.95;4.95;;;28.40;1.00;;;;;;5118139;28;20152;-58
2023/09/08 12:00:17;;;;;;;7.90;4.32;;;28.40;1.00;;;;;;5120210;28;20053;-58
2023/09/08 12:02:44;;;;;;;8.00;5.03;;;28.50;1.00;;;;;;5119132;28;20044;-58
2023/09/08 12:05:25;;;;;;;7.60;4.90;;;28.50;1.00;;;;;;5119119;28;20152;-58
2023/09/08 12:07:51;;;;;;;8.18;5.20;;;28.60;1.00;;;;;;5119745;28;20054;-57
2023/09/08 12:10:20;;;;;;;9.23;5.32;;;28.70;1.00;;;;;;5117489;28;20628;-58
2023/09/08 12:12:53;;;;;;;8.88;5.20;;;28.70;1.00;;;;;;5120338;28;20055;-57
2023/09/08 12:15:39;;;;;;;8.68;4.82;;;28.70;1.00;;;;;;5119032;28;20043;-58
2023/09/08 12:18:09;;;;;;;10.95;5.18;;;28.70;1.00;;;;;;5118518;28;20055;-56
2023/09/08 12:20:36;;;;;;;7.45;4.72;;;28.80;1.00;;;;;;5119312;28;20483;-57
2023/09/08 12:23:10;;;;;;;7.95;4.85;;;28.90;1.00;;;;;;5118833;28;20031;-58
2023/09/08 12:25:51;;;;;;;9.02;5.53;;;28.90;1.00;;;;;;5120140;28;20036;-57
2023/09/08 12:28:19;;;;;;;7.63;4.23;;;29.10;1.00;;;;;;5118964;28;20039;-58
2023/09/08 12:30:46;;;;;;;7.05;4.40;;;29.10;1.00;;;;;;5119120;28;20372;-58
2023/09/08 12:33:13;;;;;;;8.13;4.72;;;29.00;1.00;;;;;;5119623;28;20075;-57
2023/09/08 12:35:38;;;;;;;8.25;4.18;;;29.10;1.00;;;;;;5118211;28;20052;-57
2023/09/08 12:38:05;;;;;;;7.30;4.05;;;29.10;1.00;;;;;;5118381;28;20046;-58
2023/09/08 12:40:34;;;;;;;8.05;4.82;;;29.00;1.00;;;;;;5118346;28;20134;-58
2023/09/08 12:43:00;;;;;;;8.65;4.93;;;29.20;1.00;;;;;;5115424;28;20078;-58